createdAt,value
2022-08-10T00:00:39.461Z,101023.47
2022-08-10T00:05:43.082Z,101029.16
2022-08-10T00:10:46.229Z,101019.78
2022-08-10T00:15:53.821Z,101019.78
2022-08-10T00:20:56.208Z,101020.06
2022-08-10T00:25:57.642Z,101021.47
2022-08-10T00:30:59.063Z,101019.22
2022-08-10T00:36:00.470Z,101028.06
2022-08-10T00:41:01.874Z,101026.91
2022-08-10T00:46:04.009Z,101026.06
2022-08-10T00:51:05.536Z,101023.81
2022-08-10T00:57:12.913Z,101026.28
2022-08-10T01:02:10.011Z,101024.16
2022-08-10T01:07:11.485Z,101018.78
2022-08-10T01:12:39.426Z,101025.72
2022-08-10T01:17:49.708Z,101012.94
2022-08-10T01:23:05.315Z,101019.50
2022-08-10T01:28:27.861Z,101013.44
2022-08-10T01:33:58.482Z,101014.28
2022-08-10T01:38:58.377Z,101017.38
2022-08-10T01:44:11.073Z,101015.19
2022-08-10T01:49:12.685Z,101014.84
2022-08-10T01:54:14.606Z,101019.78
2022-08-10T01:59:29.964Z,101018.69
2022-08-10T02:04:32.016Z,101024.59
2022-08-10T02:09:35.881Z,101023.88
2022-08-10T02:14:43.372Z,101034.59
2022-08-10T02:19:44.781Z,101035.09
2022-08-10T02:24:46.190Z,101033.09
2022-08-10T02:29:49.053Z,101021.59
2022-08-10T02:34:51.117Z,101029.16
2022-08-10T02:39:53.161Z,101023.78
2022-08-10T02:45:27.084Z,101024.34
2022-08-10T02:50:32.874Z,101023.38
2022-08-10T02:55:48.315Z,101027.59
2022-08-10T03:00:54.945Z,101023.50
2022-08-10T03:06:09.170Z,101024.94
2022-08-10T03:11:16.854Z,101026.34
2022-08-10T03:16:38.497Z,101017.66
2022-08-10T03:21:39.918Z,101025.69
2022-08-10T03:26:41.322Z,101033.09
2022-08-10T03:31:42.730Z,101025.91
2022-08-10T03:36:45.041Z,101025.84
2022-08-10T03:41:53.492Z,101032.09
2022-08-10T03:46:55.565Z,101028.59
2022-08-10T03:51:57.629Z,101036.00
2022-08-10T03:57:00.209Z,101044.59
2022-08-10T04:02:41.663Z,101042.81
2022-08-10T04:07:23.119Z,101050.59
2022-08-10T04:12:24.545Z,101059.09
2022-08-10T04:17:56.948Z,101064.25
2022-08-10T04:22:49.895Z,101069.00
2022-08-10T04:27:51.385Z,101063.50
2022-08-10T04:32:53.785Z,101070.91
2022-08-10T04:37:56.720Z,101074.50
2022-08-10T04:43:05.836Z,101065.19
2022-08-10T04:48:42.305Z,101068.53
2022-08-10T04:53:30.529Z,101067.97
2022-08-10T04:58:31.925Z,101074.41
2022-08-10T05:03:33.376Z,101078.00
2022-08-10T05:08:34.782Z,101084.44
2022-08-10T05:13:36.198Z,101081.13
2022-08-10T05:18:37.601Z,101074.88
2022-08-10T05:23:39.044Z,101079.19
2022-08-10T05:28:40.453Z,101075.09
2022-08-10T05:33:41.860Z,101075.84
2022-08-10T05:38:43.265Z,101085.78
2022-08-10T05:43:44.669Z,101076.09
2022-08-10T05:48:58.615Z,101079.78
2022-08-10T05:54:06.830Z,101077.53
2022-08-10T05:59:09.976Z,101076.41
2022-08-10T06:04:13.849Z,101072.59
2022-08-10T06:09:15.483Z,101075.63
2022-08-10T06:14:35.364Z,101078.59
2022-08-10T06:19:38.325Z,101073.78
2022-08-10T06:25:02.734Z,101072.03
2022-08-10T06:30:02.344Z,101072.50
2022-08-10T06:35:04.217Z,101067.34
2022-08-10T06:40:06.019Z,101070.69
2022-08-10T06:45:16.742Z,101075.34
2022-08-10T06:50:56.384Z,101077.84
2022-08-10T06:56:02.165Z,101083.47
2022-08-10T07:01:06.729Z,101086.81
2022-08-10T07:06:08.188Z,101089.31
2022-08-10T07:11:11.952Z,101082.81
2022-08-10T07:16:13.799Z,101084.25
2022-08-10T07:21:15.210Z,101085.50
2022-08-10T07:26:16.966Z,101073.84
2022-08-10T07:31:31.152Z,101087.44
2022-08-10T07:36:40.425Z,101086.13
2022-08-10T07:41:42.737Z,101081.53
2022-08-10T07:46:47.050Z,101084.88
2022-08-10T07:51:54.574Z,101081.38
2022-08-10T07:56:59.644Z,101070.72
2022-08-10T08:02:01.170Z,101089.72
2022-08-10T08:07:04.329Z,101074.63
2022-08-10T08:12:07.130Z,101074.38
2022-08-10T08:17:08.571Z,101073.06
2022-08-10T08:24:06.834Z,101073.47
2022-08-10T08:27:33.341Z,101084.63
2022-08-10T08:32:38.730Z,101082.97
2022-08-10T08:38:30.316Z,101081.16
2022-08-10T08:43:31.361Z,101075.16
2022-08-10T08:49:10.834Z,101073.63
2022-08-10T08:54:36.395Z,101069.84
2022-08-10T08:59:58.990Z,101065.63
2022-08-10T09:05:21.113Z,101062.56
2022-08-10T09:10:45.480Z,101050.41
2022-08-10T09:15:51.289Z,101046.38
2022-08-10T09:21:00.397Z,101047.78
2022-08-10T09:26:04.709Z,101041.72
2022-08-10T09:31:23.282Z,101039.78
2022-08-10T09:36:44.871Z,101040.31
2022-08-10T09:41:55.963Z,101022.41
2022-08-10T09:47:05.722Z,101025.94
2022-08-10T09:52:25.193Z,101023.84
2022-08-10T09:57:46.901Z,101005.16
2022-08-10T10:03:17.721Z,101016.31
2022-08-10T10:08:26.616Z,101015.22
2022-08-10T10:14:03.860Z,101017.94
2022-08-10T10:19:22.053Z,101007.50
2022-08-10T10:24:58.817Z,100988.34
2022-08-10T10:30:04.977Z,100994.25
2022-08-10T10:35:22.085Z,100990.63
2022-08-10T10:40:25.229Z,100978.78
2022-08-10T10:45:50.573Z,100983.00
2022-08-10T10:51:00.836Z,100984.69
2022-08-10T10:56:24.770Z,100983.84
2022-08-10T11:01:42.697Z,100978.59
2022-08-10T11:06:50.283Z,100979.22
2022-08-10T11:12:00.215Z,100978.66
2022-08-10T11:17:22.461Z,100973.47
2022-08-10T11:22:40.841Z,100966.28
2022-08-10T11:27:59.350Z,100963.28
2022-08-10T11:33:31.075Z,100964.13
2022-08-10T11:39:12.594Z,100960.91
2022-08-10T11:44:09.284Z,100960.06
2022-08-10T11:49:34.825Z,100959.03
2022-08-10T11:54:44.746Z,100947.16
2022-08-10T11:59:59.259Z,100951.59
2022-08-10T12:05:11.729Z,100938.09
2022-08-10T12:10:14.295Z,100934.97
2022-08-10T12:15:19.532Z,100932.81
2022-08-10T12:20:33.022Z,100928.19
2022-08-10T12:25:55.807Z,100920.66
2022-08-10T12:30:59.425Z,100911.03
2022-08-10T12:36:22.866Z,100917.47
2022-08-10T12:41:44.809Z,100909.84
2022-08-10T12:46:54.947Z,100902.81
2022-08-10T12:52:05.136Z,100899.41
2022-08-10T12:57:16.628Z,100891.59
2022-08-10T13:02:48.611Z,100893.47
2022-08-10T13:08:26.798Z,100893.25
2022-08-10T13:13:34.910Z,100886.91
2022-08-10T13:18:40.762Z,100885.50
2022-08-10T13:24:08.863Z,100876.72
2022-08-10T13:29:15.198Z,100873.91
2022-08-10T13:34:43.302Z,100867.00
2022-08-10T13:39:58.948Z,100871.47
2022-08-10T13:45:21.997Z,100859.91
2022-08-10T13:50:33.409Z,100866.47
2022-08-10T13:55:53.291Z,100848.53
2022-08-10T14:00:58.792Z,100854.97
2022-08-10T14:06:00.241Z,100854.13
2022-08-10T14:11:11.594Z,100838.09
2022-08-10T14:16:13.741Z,100835.22
2022-08-10T14:21:15.256Z,100821.22
2022-08-10T14:26:22.213Z,100825.56
2022-08-10T14:31:25.529Z,100818.09
2022-08-10T14:36:32.149Z,100810.16
2022-08-10T14:42:02.415Z,100804.63
2022-08-10T14:47:07.938Z,100800.50
2022-08-10T14:52:27.017Z,100806.34
2022-08-10T14:58:16.931Z,100785.09
2022-08-10T15:02:56.089Z,100802.66
2022-08-10T15:08:00.001Z,100807.13
2022-08-10T15:13:02.021Z,100804.59
2022-08-10T15:18:07.792Z,100790.88
2022-08-10T15:23:31.081Z,100794.44
2022-08-10T15:29:22.518Z,100796.69
2022-08-10T15:34:15.279Z,100782.53
2022-08-10T15:40:21.199Z,100784.81
2022-08-10T15:44:47.197Z,100775.13
2022-08-10T15:50:07.056Z,100771.72
2022-08-10T15:55:42.550Z,100770.81
2022-08-10T16:00:49.079Z,100766.06
2022-08-10T16:06:01.640Z,100766.59
2022-08-10T16:11:05.629Z,100758.31
2022-08-10T16:16:08.701Z,100757.19
2022-08-10T16:21:20.634Z,100751.69
2022-08-10T16:26:27.855Z,100744.25
2022-08-10T16:31:33.234Z,100736.59
2022-08-10T16:36:46.337Z,100741.50
2022-08-10T16:42:03.639Z,100740.66
2022-08-10T16:47:07.308Z,100732.13
2022-08-10T16:52:08.768Z,100732.34
2022-08-10T16:57:10.208Z,100730.91
2022-08-10T17:02:14.504Z,100729.53
2022-08-10T17:07:16.770Z,100721.31
2022-08-10T17:12:26.930Z,100723.75
2022-08-10T17:17:31.138Z,100724.44
2022-08-10T17:22:35.970Z,100731.28
2022-08-10T17:28:05.341Z,100728.28
2022-08-10T17:33:05.494Z,100735.97
2022-08-10T17:38:12.605Z,100731.28
2022-08-10T17:43:46.688Z,100727.13
2022-08-10T17:48:41.691Z,100720.72
2022-08-10T17:53:50.060Z,100724.38
2022-08-10T17:58:53.929Z,100734.84
2022-08-10T18:03:59.342Z,100723.50
2022-08-10T18:09:06.433Z,100726.53
2022-08-10T18:14:08.057Z,100725.34
2022-08-10T18:19:11.948Z,100734.19
2022-08-10T18:24:19.036Z,100740.75
2022-08-10T18:29:27.279Z,100752.34
2022-08-10T18:34:29.959Z,100755.81
2022-08-10T18:39:33.696Z,100756.13
2022-08-10T18:44:37.238Z,100760.78
2022-08-10T18:49:49.802Z,100771.31
2022-08-10T18:54:51.917Z,100773.44
2022-08-10T19:00:07.352Z,100777.59
2022-08-10T19:05:31.665Z,100777.22
2022-08-10T19:10:53.130Z,100784.91
2022-08-10T19:16:14.994Z,100775.50
2022-08-10T19:21:19.180Z,100777.16
2022-08-10T19:26:42.549Z,100777.28
2022-08-10T19:32:15.009Z,100775.22
2022-08-10T19:37:16.258Z,100773.28
2022-08-10T19:42:31.212Z,100772.34
2022-08-10T19:47:39.010Z,100776.97
2022-08-10T19:52:54.568Z,100779.66
2022-08-10T19:58:15.706Z,100776.38
2022-08-10T20:03:20.642Z,100777.22
2022-08-10T20:08:35.679Z,100779.19
2022-08-10T20:13:47.133Z,100776.34
2022-08-10T20:19:18.829Z,100773.00
2022-08-10T20:24:28.693Z,100777.94
2022-08-10T20:29:58.587Z,100775.50
2022-08-10T20:35:08.661Z,100774.16
2022-08-10T20:40:25.354Z,100771.72
2022-08-10T20:45:41.568Z,100768.66
2022-08-10T20:50:55.749Z,100777.94
2022-08-10T20:56:16.341Z,100784.28
2022-08-10T21:01:19.168Z,100779.00
2022-08-10T21:06:43.627Z,100781.53
2022-08-10T21:11:49.636Z,100786.75
2022-08-10T21:17:39.270Z,100784.34
2022-08-10T21:22:42.296Z,100798.28
2022-08-10T21:28:30.610Z,100789.72
2022-08-10T21:33:38.884Z,100800.66
2022-08-10T21:38:57.675Z,100802.97
2022-08-10T21:44:35.268Z,100806.19
2022-08-10T21:50:16.125Z,100798.94
2022-08-10T21:56:02.881Z,100797.16
2022-08-10T22:01:31.833Z,100804.03
2022-08-10T22:07:00.829Z,100811.69
2022-08-10T22:12:31.981Z,100815.34
2022-08-10T22:18:03.097Z,100812.78
2022-08-10T22:23:40.726Z,100808.38
2022-08-10T22:29:03.628Z,100803.69
2022-08-10T22:34:32.621Z,100792.28
2022-08-10T22:40:33.368Z,100796.06
2022-08-10T22:45:53.376Z,100801.41
2022-08-10T22:51:05.106Z,100799.06
2022-08-10T22:56:32.615Z,100805.81
2022-08-10T23:02:08.149Z,100810.50
2022-08-10T23:07:15.751Z,100810.16
2022-08-10T23:12:20.497Z,100811.31
2022-08-10T23:18:01.738Z,100808.19
2022-08-10T23:23:08.951Z,100802.75
2022-08-10T23:28:13.068Z,100805.50
2022-08-10T23:33:18.268Z,100807.41
2022-08-10T23:38:39.653Z,100806.84
2022-08-10T23:44:03.366Z,100799.84
2022-08-10T23:49:06.242Z,100800.44
2022-08-10T23:54:08.914Z,100795.44
2022-08-10T23:59:12.014Z,100796.09
